Riviere-Saint-Jean, Canada
Current Conditions -  °F | °C
As of 7:00 PM on Friday 24 Oct 2014 (Local Time) from CYGV Reporting Station
Broken Clouds Broken Clouds  
Wind Chill: 50°   Ceiling: 20000
Heat Index: 50°   Visibility: 9mi
Dew Point: 30°   Wind: 8mph
Humidity: 47%   Direction: 50°NE
Pressure: 29.75"   Gusts: NA
Location:  50.28°N, 64.33°W
Report Text: CYGV 242300Z AUTO 05007KT 9SM BKN200 10/M01 A2975 RMK SLP077
Loading
Personal Weather Stations






























Interactive Weather Map
Tropical Storm Tracking
New forecast layout! Learn more

10-Day Weather Forecast

Advertisements
Track Severe Weather on mobile